Time;durP1;ratioP1;P1;durP2;ratioP2;P2;SDS_P1;SDS_P2;PMS_P1;PMS_P2;Temp;Humidity;BMP_temperature;BMP_pressure;BME280_temperature;BME280_humidity;BME280_pressure;Samples;Min_cycle;Max_cycle;Signal;HPM_P1;HPM_P2
2021/07/26 00:01:38;;;;;;;7.30;4.30;;;;;;;19.04;71.20;99226.28;4965516;28;20101;-69
2021/07/26 00:04:21;;;;;;;4.88;4.03;;;;;;;19.02;71.48;99221.94;4997126;28;20045;-69
2021/07/26 00:07:05;;;;;;;5.43;4.10;;;;;;;19.02;71.25;99226.34;4996915;28;20045;-68
2021/07/26 00:09:52;;;;;;;5.20;3.90;;;;;;;19.00;71.15;99236.03;4997246;28;20062;-68
2021/07/26 00:12:36;;;;;;;5.75;3.58;;;;;;;19.00;71.06;99234.25;4996623;28;20525;-69
2021/07/26 00:15:22;;;;;;;6.13;4.32;;;;;;;18.99;71.12;99231.69;4996522;28;20050;-69
2021/07/26 00:18:09;;;;;;;4.15;3.15;;;;;;;18.97;71.05;99226.50;4996859;28;20046;-69
2021/07/26 00:20:55;;;;;;;4.78;3.83;;;;;;;18.96;71.26;99237.91;4997231;28;20049;-69
2021/07/26 00:23:40;;;;;;;5.65;3.58;;;;;;;18.95;71.21;99228.31;4996797;28;20133;-69
2021/07/26 00:26:32;;;;;;;4.65;3.38;;;;;;;18.94;71.26;99225.66;4996741;28;20085;-70
2021/07/26 00:29:19;;;;;;;4.30;3.70;;;;;;;18.93;71.22;99226.56;4981772;28;20528;-69
2021/07/26 00:32:06;;;;;;;5.72;3.00;;;;;;;18.92;71.47;99217.00;4996925;28;20061;-69
2021/07/26 00:34:53;;;;;;;4.13;3.17;;;;;;;18.90;71.27;99216.19;4981748;28;20084;-68
2021/07/26 00:37:37;;;;;;;4.30;3.15;;;;;;;18.89;71.24;99214.47;4996471;28;20424;-70
2021/07/26 00:40:24;;;;;;;5.00;3.80;;;;;;;18.89;71.19;99219.72;4996359;28;20069;-69
2021/07/26 00:43:10;;;;;;;7.70;3.88;;;;;;;18.89;71.20;99224.97;4981868;28;20100;-68
2021/07/26 00:46:00;;;;;;;5.50;3.30;;;;;;;18.87;71.21;99223.25;4996567;28;20053;-68
2021/07/26 00:48:45;;;;;;;6.55;3.53;;;;;;;18.87;71.20;99222.38;4996117;28;20049;-70
2021/07/26 00:51:32;;;;;;;5.43;3.42;;;;;;;18.86;71.22;99215.41;4996469;28;20053;-68
2021/07/26 00:54:37;;;;;;;5.53;3.20;;;;;;;18.86;71.29;99212.78;4981849;28;20508;-68
2021/07/26 00:57:25;;;;;;;7.90;3.28;;;;;;;18.86;71.26;99212.78;4996651;28;20080;-68
2021/07/26 01:00:09;;;;;;;5.78;3.40;;;;;;;18.83;71.38;99213.75;4996216;28;20097;-69
2021/07/26 01:02:56;;;;;;;5.32;3.28;;;;;;;18.82;71.19;99214.66;4996138;28;20553;-69
2021/07/26 01:05:43;;;;;;;8.10;3.30;;;;;;;18.81;70.96;99217.34;4980845;28;20083;-69
2021/07/26 01:08:27;;;;;;;4.22;3.13;;;;;;;18.80;71.20;99213.00;4996088;28;20052;-68
2021/07/26 01:11:11;;;;;;;7.53;3.70;;;;;;;18.80;71.32;99213.00;4995544;28;20050;-68
2021/07/26 01:13:55;;;;;;;5.88;3.65;;;;;;;18.78;71.16;99209.56;4996031;28;20049;-70
2021/07/26 01:16:44;;;;;;;4.22;2.97;;;;;;;18.78;71.31;99209.56;4981530;28;20181;-69
2021/07/26 01:19:29;;;;;;;6.25;3.65;;;;;;;18.76;71.20;99212.25;4995673;28;20136;-70
2021/07/26 01:22:16;;;;;;;3.78;3.08;;;;;;;18.76;71.30;99216.63;4980763;28;20097;-69
2021/07/26 01:25:06;;;;;;;4.88;3.38;;;;;;;18.73;71.53;99214.97;4995669;28;20101;-69
2021/07/26 01:27:50;;;;;;;4.53;3.35;;;;;;;18.72;71.21;99213.25;4981134;28;20045;-69
2021/07/26 01:30:36;;;;;;;4.18;3.33;;;;;;;18.71;71.35;99219.38;4995104;28;20424;-68
2021/07/26 01:33:20;;;;;;;3.75;3.35;;;;;;;18.69;71.36;99222.03;4995616;28;20108;-68
2021/07/26 01:36:05;;;;;;;5.53;3.45;;;;;;;18.69;71.56;99222.03;4995762;28;20077;-68
2021/07/26 01:38:54;;;;;;;3.92;2.90;;;;;;;18.68;71.22;99216.84;4996147;28;20516;-70
2021/07/26 01:41:42;;;;;;;7.80;3.92;;;;;;;18.67;71.44;99218.63;4980527;28;20101;-68
2021/07/26 01:44:27;;;;;;;8.68;4.35;;;;;;;18.66;71.30;99222.16;4995096;28;20521;-70
2021/07/26 01:47:14;;;;;;;5.05;3.28;;;;;;;18.65;71.38;99227.44;4994804;28;20126;-69
2021/07/26 01:50:10;;;;;;;6.18;3.67;;;;;;;18.63;71.52;99224.88;4995149;28;20101;-69
2021/07/26 01:52:57;;;;;;;6.00;3.92;;;;;;;18.63;71.42;99218.75;4994946;28;20065;-69
2021/07/26 01:55:41;;;;;;;4.18;3.13;;;;;;;18.62;71.62;99220.53;4994860;28;20513;-69
2021/07/26 01:58:25;;;;;;;5.88;3.67;;;;;;;18.62;71.48;99217.91;4995194;28;20077;-69
2021/07/26 02:01:09;;;;;;;4.45;3.22;;;;;;;18.62;71.58;99220.53;4994392;28;20045;-69
2021/07/26 02:03:55;;;;;;;4.18;3.22;;;;;;;18.62;71.55;99215.28;4994705;28;20057;-70
2021/07/26 02:06:39;;;;;;;4.50;3.55;;;;;;;18.62;71.49;99220.53;4994911;28;20053;-69
2021/07/26 02:09:26;;;;;;;5.00;3.40;;;;;;;18.62;71.58;99224.91;4980266;28;20049;-69
2021/07/26 02:12:10;;;;;;;5.10;3.90;;;;;;;18.61;71.65;99228.47;4980396;28;20105;-69
2021/07/26 02:14:59;;;;;;;4.60;3.20;;;;;;;18.61;71.43;99233.72;4994512;28;20088;-69
2021/07/26 02:17:51;;;;;;;4.75;3.55;;;;;;;18.59;71.37;99235.50;4980286;28;20470;-69
2021/07/26 02:20:36;;;;;;;8.30;3.83;;;;;;;18.60;71.24;99240.69;4994228;28;20040;-69
2021/07/26 02:23:19;;;;;;;6.30;3.60;;;;;;;18.59;71.52;99232.88;4980182;28;20410;-69
2021/07/26 02:26:04;;;;;;;5.70;3.22;;;;;;;18.58;71.42;99239.88;4994632;28;20119;-68
2021/07/26 02:28:50;;;;;;;7.82;4.28;;;;;;;18.56;71.26;99234.69;4979677;28;20056;-69
2021/07/26 02:31:35;;;;;;;6.43;4.10;;;;;;;18.55;71.50;99242.59;4979614;28;20095;-69
2021/07/26 02:34:18;;;;;;;4.35;3.35;;;;;;;18.54;71.37;99247.00;4979908;28;20069;-70
2021/07/26 02:37:06;;;;;;;5.78;3.75;;;;;;;18.54;71.60;99246.13;4979445;28;20077;-69
2021/07/26 02:39:52;;;;;;;7.20;3.65;;;;;;;18.50;71.48;99242.72;4979753;28;20071;-68
2021/07/26 02:42:36;;;;;;;4.93;3.42;;;;;;;18.51;71.74;99243.63;4994426;28;20057;-69
2021/07/26 02:45:20;;;;;;;6.55;4.15;;;;;;;18.49;71.50;99248.03;4993999;28;20185;-70
2021/07/26 02:48:08;;;;;;;5.95;3.65;;;;;;;18.49;71.51;99250.66;4994605;28;20045;-70
2021/07/26 02:50:55;;;;;;;8.35;4.35;;;;;;;18.48;71.58;99249.78;4994184;28;20041;-70
2021/07/26 02:53:41;;;;;;;4.90;3.72;;;;;;;18.47;71.49;99245.44;4978585;28;20057;-69
2021/07/26 02:56:28;;;;;;;5.97;3.95;;;;;;;18.47;71.73;99252.47;4994378;28;20421;-68
2021/07/26 02:59:17;;;;;;;9.60;4.00;;;;;;;18.47;71.49;99257.72;4979514;28;20080;-68
2021/07/26 03:02:01;;;;;;;5.15;3.90;;;;;;;18.44;71.53;99261.28;4979217;28;20088;-68
2021/07/26 03:04:45;;;;;;;6.03;3.90;;;;;;;18.44;71.60;99260.41;4979594;28;20061;-69
2021/07/26 03:07:31;;;;;;;8.52;4.30;;;;;;;18.44;71.64;99260.41;4994177;28;20109;-69
2021/07/26 03:10:15;;;;;;;6.45;3.58;;;;;;;18.41;71.88;99261.38;4979636;28;20092;-69
2021/07/26 03:13:02;;;;;;;4.97;3.92;;;;;;;18.41;71.98;99261.38;4979526;28;20565;-69
2021/07/26 03:15:46;;;;;;;6.18;3.85;;;;;;;18.40;71.77;99268.38;4979445;28;20057;-68
2021/07/26 03:18:33;;;;;;;5.68;3.45;;;;;;;18.40;71.78;99264.91;4979377;28;20049;-69
2021/07/26 03:21:19;;;;;;;5.18;3.95;;;;;;;18.39;71.83;99269.28;4993671;28;20069;-70
2021/07/26 03:24:07;;;;;;;4.97;3.67;;;;;;;18.39;71.64;99269.28;4993870;28;20041;-69
2021/07/26 03:26:55;;;;;;;6.47;3.85;;;;;;;18.38;71.78;99264.94;4993550;28;20061;-69
2021/07/26 03:29:39;;;;;;;7.40;3.85;;;;;;;18.37;71.90;99260.59;4993871;28;20153;-69
2021/07/26 03:32:23;;;;;;;4.68;3.65;;;;;;;18.37;71.66;99259.75;4979651;28;20192;-68
2021/07/26 03:35:07;;;;;;;6.32;3.78;;;;;;;18.36;71.75;99260.63;4993401;28;20527;-69
2021/07/26 03:37:57;;;;;;;7.57;3.60;;;;;;;18.35;71.82;99262.41;4993334;28;20057;-68
2021/07/26 03:40:44;;;;;;;5.20;3.33;;;;;;;18.34;72.29;99260.69;4993518;28;20104;-70
2021/07/26 03:43:34;;;;;;;4.63;3.35;;;;;;;18.33;71.95;99265.97;4993812;28;20061;-68
2021/07/26 03:46:20;;;;;;;9.73;5.20;;;;;;;18.32;71.70;99264.25;4978757;28;20573;-68
2021/07/26 03:49:10;;;;;;;6.00;3.83;;;;;;;18.31;71.66;99268.66;4979079;28;20069;-71
2021/07/26 03:51:57;;;;;;;5.78;4.05;;;;;;;18.29;71.85;99269.59;4979380;28;20054;-69
2021/07/26 03:54:44;;;;;;;5.32;3.10;;;;;;;18.28;72.01;99270.50;4993593;28;20112;-70
2021/07/26 03:57:28;;;;;;;7.90;4.25;;;;;;;18.28;71.98;99268.72;4993520;28;20049;-69
2021/07/26 04:00:13;;;;;;;4.75;3.90;;;;;;;18.28;71.83;99273.13;4993442;28;20053;-69
2021/07/26 04:03:25;;;;;;;5.88;4.13;;;;;;;18.28;71.96;99281.00;4978681;28;20098;-69
2021/07/26 04:06:10;;;;;;;8.15;3.25;;;;;;;18.26;72.01;99274.03;4995837;28;20517;-68
2021/07/26 04:08:56;;;;;;;6.55;4.00;;;;;;;18.25;71.95;99288.03;4997401;28;20417;-69
2021/07/26 04:11:46;;;;;;;4.05;3.63;;;;;;;18.23;72.07;99295.09;4996852;28;20092;-69
2021/07/26 04:14:36;;;;;;;6.07;3.63;;;;;;;18.22;72.06;99293.38;4982527;28;20057;-69
2021/07/26 04:17:20;;;;;;;4.80;3.72;;;;;;;18.21;71.90;99294.25;4997069;28;20080;-67
2021/07/26 04:20:06;;;;;;;5.57;3.90;;;;;;;18.19;72.16;99301.31;4996520;28;20096;-68
2021/07/26 04:22:52;;;;;;;6.18;3.88;;;;;;;18.19;72.15;99303.94;4996613;28;20072;-68
2021/07/26 04:25:36;;;;;;;5.50;3.70;;;;;;;18.17;72.43;99304.88;4996429;28;20524;-68
2021/07/26 04:28:20;;;;;;;6.70;3.78;;;;;;;18.16;72.19;99303.16;4982283;28;20452;-69
2021/07/26 04:31:04;;;;;;;6.20;4.60;;;;;;;18.15;72.30;99307.53;4997072;28;20077;-69
2021/07/26 04:33:54;;;;;;;9.38;3.95;;;;;;;18.15;72.10;99312.78;4996585;28;20065;-69
2021/07/26 04:36:38;;;;;;;6.40;4.03;;;;;;;18.14;72.23;99311.06;4996413;28;20050;-68
2021/07/26 04:39:24;;;;;;;7.93;4.82;;;;;;;18.16;72.15;99311.03;4996764;28;20084;-70
2021/07/26 04:42:08;;;;;;;5.93;4.00;;;;;;;18.17;72.27;99313.59;4996604;28;20092;-69
2021/07/26 04:44:52;;;;;;;5.22;4.10;;;;;;;18.17;72.42;99312.75;4982022;28;20145;-69
2021/07/26 04:47:39;;;;;;;7.05;3.88;;;;;;;18.18;72.22;99323.19;4996201;28;20049;-70
2021/07/26 04:50:23;;;;;;;6.25;3.70;;;;;;;18.18;71.95;99320.56;4996429;28;20100;-69
2021/07/26 04:53:07;;;;;;;6.55;3.97;;;;;;;18.18;72.29;99320.56;4996631;28;20126;-68
2021/07/26 04:55:51;;;;;;;9.50;3.90;;;;;;;18.20;72.38;99323.16;4981545;28;20101;-69
2021/07/26 04:58:37;;;;;;;8.77;3.72;;;;;;;18.19;72.57;99317.03;4981512;28;20061;-68
2021/07/26 05:01:24;;;;;;;8.90;4.07;;;;;;;18.19;72.63;99319.66;4995681;28;20052;-69
2021/07/26 05:04:11;;;;;;;7.45;3.30;;;;;;;18.21;72.37;99327.50;4981353;28;20104;-68
2021/07/26 05:07:02;;;;;;;7.95;4.40;;;;;;;18.20;72.22;99325.78;4981367;28;20053;-68
2021/07/26 05:09:46;;;;;;;6.28;3.88;;;;;;;18.19;72.68;99330.16;4995833;28;20567;-68
2021/07/26 05:12:29;;;;;;;4.65;3.88;;;;;;;18.21;72.24;99317.03;4996180;28;20046;-67
2021/07/26 05:15:13;;;;;;;6.72;4.70;;;;;;;18.21;72.63;99328.34;4995381;28;20417;-68
2021/07/26 05:18:00;;;;;;;7.13;4.35;;;;;;;18.21;72.19;99323.09;4995338;28;20077;-68
2021/07/26 05:20:44;;;;;;;4.90;4.18;;;;;;;18.21;72.60;99323.09;4995585;28;20568;-68
2021/07/26 05:23:28;;;;;;;5.88;3.90;;;;;;;18.21;72.54;99324.88;4981096;28;20075;-68
2021/07/26 05:26:14;;;;;;;5.72;4.03;;;;;;;18.22;72.86;99322.22;4995693;28;20124;-70
2021/07/26 05:28:58;;;;;;;5.80;4.00;;;;;;;18.22;72.67;99323.94;4995596;28;20457;-69
2021/07/26 05:31:45;;;;;;;8.80;4.20;;;;;;;18.22;72.73;99322.22;4995769;28;20517;-67
2021/07/26 05:34:29;;;;;;;4.95;4.38;;;;;;;18.22;72.75;99318.72;4995183;28;20069;-69
2021/07/26 05:37:13;;;;;;;4.65;3.83;;;;;;;18.22;72.71;99322.22;4980998;28;20121;-67
2021/07/26 05:39:57;;;;;;;;;;;;;;;18.21;72.56;99323.09;4981113;28;20073;-69
2021/07/26 05:42:42;;;;;;;5.95;4.22;;;;;;;18.20;72.67;99321.38;4995615;28;19921;-67
2021/07/26 05:45:26;;;;;;;5.07;4.32;;;;;;;18.22;72.84;99322.22;4994876;28;20537;-69
2021/07/26 05:48:10;;;;;;;4.97;4.10;;;;;;;18.22;72.53;99322.22;4980532;28;20103;-68
2021/07/26 05:50:55;;;;;;;;;;;;;;;18.22;72.77;99318.72;4995492;28;20080;-67
2021/07/26 05:53:39;;;;;;;7.50;4.13;;;;;;;18.23;72.88;99318.69;4995294;28;19941;-68
2021/07/26 05:56:28;;;;;;;4.93;3.70;;;;;;;18.24;72.95;99322.16;4995146;28;20116;-67
2021/07/26 05:59:13;;;;;;;7.70;4.50;;;;;;;18.23;72.99;99316.06;4995085;28;20057;-68
2021/07/26 06:01:57;;;;;;;5.85;4.28;;;;;;;18.24;72.93;99314.28;4994863;28;20190;-69
2021/07/26 06:04:43;;;;;;;7.55;4.22;;;;;;;18.25;72.77;99308.16;4994542;28;20045;-68
2021/07/26 06:07:28;;;;;;;5.78;4.30;;;;;;;18.26;73.00;99307.25;4980420;28;20089;-69
2021/07/26 06:10:14;;;;;;;4.95;4.10;;;;;;;18.26;72.85;99307.25;4980361;28;20469;-69
2021/07/26 06:13:00;;;;;;;5.40;4.55;;;;;;;18.26;72.84;99316.00;4995369;28;20057;-68
2021/07/26 06:15:44;;;;;;;6.55;4.00;;;;;;;18.28;73.00;99322.97;4980332;28;20117;-67
2021/07/26 06:18:28;;;;;;;9.02;4.53;;;;;;;18.27;72.96;99316.84;4994722;28;20053;-67
2021/07/26 06:21:12;;;;;;;5.15;4.65;;;;;;;18.29;72.97;99314.19;4980283;28;20125;-68
2021/07/26 06:23:59;;;;;;;5.88;4.55;;;;;;;18.30;72.93;99315.88;4980022;28;20053;-68
2021/07/26 06:26:44;;;;;;;5.60;4.10;;;;;;;18.30;73.03;99314.13;4994750;28;20057;-68
2021/07/26 06:29:27;;;;;;;5.60;4.65;;;;;;;18.32;72.70;99317.56;4994202;28;20422;-68
2021/07/26 06:32:14;;;;;;;11.32;4.40;;;;;;;18.32;73.00;99319.31;4994450;28;20081;-67
2021/07/26 06:35:00;;;;;;;5.43;3.95;;;;;;;18.33;72.86;99332.41;4994141;28;20065;-69
2021/07/26 06:37:45;;;;;;;5.13;4.18;;;;;;;18.33;73.05;99323.66;4979952;28;20054;-68
2021/07/26 06:40:33;;;;;;;4.82;3.95;;;;;;;18.32;72.83;99325.44;4979812;28;20169;-70
2021/07/26 06:43:17;;;;;;;5.13;4.25;;;;;;;18.32;72.95;99322.81;4994288;28;20049;-70
2021/07/26 06:46:07;;;;;;;7.53;4.40;;;;;;;18.31;72.82;99322.84;4994587;28;20390;-69
2021/07/26 06:48:51;;;;;;;5.93;3.95;;;;;;;18.31;72.95;99331.59;4994202;28;20049;-68
2021/07/26 06:51:35;;;;;;;5.80;4.10;;;;;;;18.32;72.67;99332.44;4993910;28;20129;-69
2021/07/26 06:54:19;;;;;;;7.78;4.13;;;;;;;18.34;72.78;99333.25;4994083;28;20056;-70
2021/07/26 06:57:06;;;;;;;4.15;3.70;;;;;;;18.35;72.87;99327.13;4994093;28;20121;-69
2021/07/26 06:59:50;;;;;;;7.65;4.40;;;;;;;18.38;72.95;99330.50;4979436;28;20414;-68
2021/07/26 07:02:34;;;;;;;10.05;4.40;;;;;;;18.38;73.15;99330.50;4994388;28;20069;-68
2021/07/26 07:05:18;;;;;;;5.30;4.13;;;;;;;18.40;72.75;99333.09;4994102;28;20104;-69
2021/07/26 07:08:03;;;;;;;5.88;4.13;;;;;;;18.39;72.62;99326.97;4993641;28;20422;-67
2021/07/26 07:10:49;;;;;;;4.70;3.65;;;;;;;18.40;72.91;99328.69;4994001;28;20045;-70
2021/07/26 07:13:36;;;;;;;4.65;4.00;;;;;;;18.39;72.85;99331.38;4993429;28;20044;-67
2021/07/26 07:16:21;;;;;;;5.65;3.40;;;;;;;18.38;72.81;99338.38;4994092;28;20089;-70
2021/07/26 07:19:06;;;;;;;7.80;4.40;;;;;;;18.38;72.86;99335.75;4993837;28;20069;-67
2021/07/26 07:21:52;;;;;;;6.55;3.60;;;;;;;18.38;72.61;99341.00;4978717;28;20537;-66
2021/07/26 07:24:36;;;;;;;8.60;3.58;;;;;;;18.39;72.76;99341.88;4993734;28;20084;-70
2021/07/26 07:27:22;;;;;;;5.88;3.92;;;;;;;18.39;72.80;99341.88;4994036;28;20464;-68
2021/07/26 07:30:07;;;;;;;7.45;3.65;;;;;;;18.40;72.71;99343.59;4993465;28;20080;-68
2021/07/26 07:32:51;;;;;;;4.50;3.65;;;;;;;18.40;72.57;99346.22;4993975;28;20096;-70
2021/07/26 07:35:35;;;;;;;10.15;3.28;;;;;;;18.39;72.65;99342.72;4993737;28;20112;-69
2021/07/26 07:38:19;;;;;;;7.00;3.75;;;;;;;18.39;72.69;99355.84;4993421;28;20044;-68
2021/07/26 07:41:05;;;;;;;5.00;3.42;;;;;;;18.42;72.76;99357.53;4981610;28;20061;-69
2021/07/26 07:43:54;;;;;;;7.68;3.55;;;;;;;18.41;72.83;99369.78;4997271;28;20556;-68
2021/07/26 07:46:40;;;;;;;6.28;3.85;;;;;;;18.39;72.73;99366.34;4982363;28;20100;-70
2021/07/26 07:49:30;;;;;;;6.55;3.55;;;;;;;18.41;72.64;99367.16;4982699;28;20053;-69
2021/07/26 07:52:17;;;;;;;6.70;3.58;;;;;;;18.41;72.68;99368.94;4997641;28;20054;-68
2021/07/26 07:55:01;;;;;;;8.07;3.38;;;;;;;18.40;72.69;99364.59;4997355;28;20046;-68
2021/07/26 07:57:48;;;;;;;5.15;3.20;;;;;;;18.40;72.47;99362.81;4997427;28;20096;-69
2021/07/26 08:00:32;;;;;;;7.63;3.80;;;;;;;18.40;72.64;99367.22;4997077;28;20089;-69
2021/07/26 08:03:21;;;;;;;7.75;3.60;;;;;;;18.42;72.63;99365.41;4997141;28;20058;-67
2021/07/26 08:06:07;;;;;;;7.10;3.88;;;;;;;18.42;72.65;99363.63;4996991;28;20241;-69
2021/07/26 08:08:54;;;;;;;3.67;3.28;;;;;;;18.45;72.69;99369.69;4997241;28;20056;-68
2021/07/26 08:11:40;;;;;;;4.35;3.47;;;;;;;18.46;72.63;99374.03;4982276;28;20099;-68
2021/07/26 08:14:30;;;;;;;6.10;3.60;;;;;;;18.48;72.50;99373.09;4981810;28;20486;-68
2021/07/26 08:17:14;;;;;;;4.45;3.40;;;;;;;18.48;72.64;99370.47;4982173;28;20042;-67
2021/07/26 08:19:58;;;;;;;5.25;3.13;;;;;;;18.49;72.11;99366.09;4997268;28;20512;-69
2021/07/26 08:22:45;;;;;;;5.15;3.80;;;;;;;18.47;72.48;99376.63;4982466;28;20045;-70
2021/07/26 08:25:29;;;;;;;4.60;4.18;;;;;;;18.49;72.52;99376.59;4982304;28;20073;-68
2021/07/26 08:28:16;;;;;;;6.47;3.58;;;;;;;18.49;72.27;99373.97;4982040;28;20057;-67
2021/07/26 08:31:01;;;;;;;6.30;3.85;;;;;;;18.49;72.42;99373.97;4982340;28;20096;-67
2021/07/26 08:33:45;;;;;;;4.65;3.28;;;;;;;18.49;72.49;99373.97;4996615;28;20099;-67
2021/07/26 08:36:29;;;;;;;5.97;3.50;;;;;;;18.49;72.40;99377.44;4996788;28;20112;-68
2021/07/26 08:39:16;;;;;;;5.03;3.60;;;;;;;18.51;72.32;99373.00;4996624;28;20041;-68
2021/07/26 08:42:00;;;;;;;3.75;3.25;;;;;;;18.55;72.67;99371.16;4981727;28;20410;-68
2021/07/26 08:44:44;;;;;;;3.35;3.00;;;;;;;18.59;72.17;99377.19;4996475;28;20069;-70
2021/07/26 08:47:32;;;;;;;4.55;3.00;;;;;;;18.60;72.24;99376.31;4996686;28;20057;-70
2021/07/26 08:50:18;;;;;;;5.38;3.17;;;;;;;18.62;72.32;99380.59;4996546;28;20129;-68
2021/07/26 08:53:04;;;;;;;3.60;3.15;;;;;;;18.64;72.38;99372.66;4979974;28;20053;-68
2021/07/26 08:55:54;;;;;;;6.00;3.05;;;;;;;18.67;72.17;99375.22;4996283;28;20104;-68
2021/07/26 08:58:39;;;;;;;5.72;3.42;;;;;;;18.70;72.21;99375.13;4995823;28;20117;-71
2021/07/26 09:01:24;;;;;;;6.60;3.22;;;;;;;18.71;72.27;99387.34;4995748;28;20053;-70
2021/07/26 09:04:13;;;;;;;4.13;3.33;;;;;;;18.72;72.08;99387.28;4981562;28;20579;-68
2021/07/26 09:06:57;;;;;;;3.95;3.13;;;;;;;18.73;72.18;99385.56;4981872;28;20057;-69
2021/07/26 09:09:49;;;;;;;3.47;2.88;;;;;;;18.74;71.93;99384.66;4996304;28;20045;-69
2021/07/26 09:12:36;;;;;;;4.30;3.63;;;;;;;18.76;71.99;99382.84;4981028;28;20104;-70
2021/07/26 09:15:23;;;;;;;7.28;3.58;;;;;;;18.79;71.96;99393.22;4995730;28;20045;-69
2021/07/26 09:18:09;;;;;;;6.55;3.83;;;;;;;18.81;72.10;99403.72;4995871;28;20104;-70
2021/07/26 09:20:52;;;;;;;3.35;3.00;;;;;;;18.81;71.80;99388.81;4995322;28;20510;-70
2021/07/26 09:23:38;;;;;;;3.95;3.22;;;;;;;18.80;71.93;99400.19;4995873;28;20053;-68
2021/07/26 09:26:26;;;;;;;5.20;3.60;;;;;;;18.81;71.89;99403.72;4995734;28;20172;-68
2021/07/26 09:29:30;;;;;;;4.28;3.33;;;;;;;18.80;71.74;99400.19;4980954;28;20537;-68
2021/07/26 09:32:14;;;;;;;3.97;3.42;;;;;;;18.81;71.92;99407.19;4995394;28;20042;-68
2021/07/26 09:34:58;;;;;;;5.13;3.28;;;;;;;18.80;71.64;99401.97;4995484;28;20081;-68
2021/07/26 09:37:42;;;;;;;5.93;3.75;;;;;;;18.80;71.91;99405.47;4995754;28;20517;-70
2021/07/26 09:40:32;;;;;;;5.35;3.38;;;;;;;18.80;71.69;99407.22;4981018;28;20053;-68
2021/07/26 09:43:22;;;;;;;4.85;3.55;;;;;;;18.80;71.71;99404.59;4995488;28;20617;-69
2021/07/26 09:46:23;;;;;;;6.20;3.38;;;;;;;18.85;71.63;99411.44;4995546;28;20124;-67
2021/07/26 09:49:18;;;;;;;5.95;3.70;;;;;;;18.91;71.57;99405.16;4980635;28;20077;-66
2021/07/26 09:52:08;;;;;;;4.75;3.65;;;;;;;18.94;71.45;99406.81;4980335;28;20081;-68
2021/07/26 09:54:53;;;;;;;4.43;3.55;;;;;;;18.95;71.74;99409.47;4994782;28;20181;-68
2021/07/26 09:57:38;;;;;;;13.93;4.57;;;;;;;18.96;71.46;99415.56;4980590;28;20168;-67
2021/07/26 10:00:25;;;;;;;;;;;;;;;18.97;71.30;99417.28;4981113;28;20602;-67
2021/07/26 10:03:14;;;;;;;6.50;3.72;;;;;;;18.95;71.42;99421.72;4994330;28;20277;-68
2021/07/26 10:05:59;;;;;;;7.05;3.70;;;;;;;18.95;71.22;99421.72;4995153;28;20133;-67
2021/07/26 10:08:44;;;;;;;4.80;4.03;;;;;;;18.94;71.38;99423.47;4994759;28;20053;-67
2021/07/26 10:11:28;;;;;;;4.22;3.10;;;;;;;18.94;71.35;99419.94;4994988;28;20130;-66
2021/07/26 10:14:12;;;;;;;4.80;3.63;;;;;;;18.95;71.29;99422.59;4994548;28;20412;-66
2021/07/26 10:16:59;;;;;;;;;;;;;;;18.96;71.20;99426.06;4994900;28;20044;-68
2021/07/26 10:19:43;;;;;;;7.13;3.75;;;;;;;18.96;71.27;99412.94;4994861;28;19921;-68
2021/07/26 10:22:28;;;;;;;5.63;3.47;;;;;;;18.97;71.21;99419.91;4994282;28;20161;-66
2021/07/26 10:25:18;;;;;;;4.22;3.75;;;;;;;19.00;71.40;99418.03;4994740;28;20080;-65
2021/07/26 10:28:07;;;;;;;7.32;3.60;;;;;;;19.04;71.02;99415.34;4994207;28;20085;-67
2021/07/26 10:30:53;;;;;;;15.85;5.15;;;;;;;19.07;70.97;99417.88;4979989;28;20118;-68
2021/07/26 10:34:03;;;;;;;7.72;4.72;;;;;;;19.08;70.99;99416.97;4994683;28;20054;-68
2021/07/26 10:36:55;;;;;;;12.60;4.63;;;;;;;19.07;70.96;99423.13;4994622;28;20077;-66
2021/07/26 10:40:19;;;;;;;8.88;3.97;;;;;;;19.04;70.84;99423.22;4994095;28;20057;-67
2021/07/26 10:43:03;;;;;;;4.78;3.90;;;;;;;18.99;71.13;99413.72;4979804;28;20052;-67
2021/07/26 10:45:55;;;;;;;9.20;3.83;;;;;;;18.98;70.95;99425.13;4979599;28;20128;-66
2021/07/26 10:48:52;;;;;;;8.00;4.22;;;;;;;18.97;70.87;99427.78;4994529;28;20046;-67
2021/07/26 10:51:45;;;;;;;9.25;4.28;;;;;;;18.98;71.03;99424.25;4979651;28;20049;-72
2021/07/26 10:54:32;;;;;;;7.40;4.47;;;;;;;19.00;70.89;99430.31;4994253;28;20120;-67
2021/07/26 10:57:46;;;;;;;8.02;4.20;;;;;;;19.00;70.96;99430.31;4979254;28;20053;-70
2021/07/26 11:00:32;;;;;;;5.53;3.78;;;;;;;19.04;70.71;99426.72;4979314;28;20084;-66
2021/07/26 11:03:48;;;;;;;5.25;3.65;;;;;;;19.13;70.85;99418.56;4979075;28;20612;-67
2021/07/26 11:06:36;;;;;;;4.93;3.65;;;;;;;19.15;70.64;99429.88;4989790;28;20101;-68
2021/07/26 11:09:24;;;;;;;4.38;3.80;;;;;;;19.21;70.65;99412.22;4979386;28;20077;-67
2021/07/26 11:12:11;;;;;;;6.95;3.88;;;;;;;19.25;70.51;99421.72;4979419;28;20057;-67
2021/07/26 11:15:17;;;;;;;6.45;3.95;;;;;;;19.26;70.48;99421.69;4994524;28;20093;-68
2021/07/26 11:18:21;;;;;;;5.18;3.67;;;;;;;19.27;70.63;99418.16;4998039;28;20092;-68
2021/07/26 11:21:09;;;;;;;6.65;4.10;;;;;;;19.27;70.65;99419.91;4997833;28;20081;-68
2021/07/26 11:24:02;;;;;;;6.18;4.78;;;;;;;19.28;70.55;99427.75;4982834;28;20049;-67
2021/07/26 11:26:49;;;;;;;6.70;4.18;;;;;;;19.31;70.47;99417.13;4983380;28;20093;-66
2021/07/26 11:29:34;;;;;;;8.45;4.60;;;;;;;19.32;70.42;99418.88;4983027;28;20525;-67
2021/07/26 11:32:24;;;;;;;6.43;4.40;;;;;;;19.32;70.69;99418.88;4997875;28;20406;-68
2021/07/26 11:35:14;;;;;;;9.68;4.95;;;;;;;19.31;70.62;99421.53;4997569;28;20042;-66
2021/07/26 11:38:09;;;;;;;9.05;4.13;;;;;;;19.30;70.42;99402.31;4997700;28;20052;-68
2021/07/26 11:40:53;;;;;;;5.20;3.78;;;;;;;19.29;70.38;99405.84;4982790;28;20081;-68
2021/07/26 11:43:39;;;;;;;5.70;4.28;;;;;;;19.30;70.35;99409.31;4997425;28;20085;-66
2021/07/26 11:46:28;;;;;;;114.03;74.05;;;;;;;19.30;70.44;99409.31;4997591;28;20065;-67
2021/07/26 11:49:19;;;;;;;132.60;88.72;;;;;;;19.31;70.13;99406.63;4983045;28;20409;-71
2021/07/26 11:52:11;;;;;;;173.13;57.65;;;;;;;19.31;70.31;99414.50;4997639;28;20127;-71
2021/07/26 11:54:58;;;;;;;63.35;28.77;;;;;;;19.30;70.08;99410.19;4996971;28;20046;-71
2021/07/26 11:57:58;;;;;;;36.88;17.13;;;;;;;19.34;70.10;99416.22;4997133;28;20064;-70
2021/07/26 12:00:44;;;;;;;17.95;9.55;;;;;;;19.37;70.06;99423.13;4997248;28;20406;-71
2021/07/26 12:03:28;;;;;;;12.82;7.88;;;;;;;19.37;70.04;99416.13;4982233;28;20100;-70
2021/07/26 12:06:15;;;;;;;110.97;15.43;;;;;;;19.37;69.75;99413.50;4997550;28;20402;-71
2021/07/26 12:09:07;;;;;;;29.63;8.82;;;;;;;19.39;70.00;99409.03;4997448;28;20405;-70
2021/07/26 12:11:56;;;;;;;35.17;7.30;;;;;;;19.44;69.96;99419.41;4982642;28;20053;-67
2021/07/26 12:14:44;;;;;;;14.20;5.03;;;;;;;19.49;69.82;99414.88;4981916;28;20103;-62
2021/07/26 12:17:31;;;;;;;26.60;7.25;;;;;;;19.48;69.75;99415.75;4996649;28;20049;-62
2021/07/26 12:20:21;;;;;;;20.00;5.80;;;;;;;19.47;69.66;99412.28;4997153;28;20116;-62
2021/07/26 12:23:15;;;;;;;7.68;4.00;;;;;;;19.47;69.57;99419.31;4997145;28;20062;-62
2021/07/26 12:26:10;;;;;;;17.67;4.63;;;;;;;19.43;69.48;99408.03;4981928;28;20128;-61
2021/07/26 12:29:09;;;;;;;5.45;4.00;;;;;;;19.42;69.34;99414.19;4981912;28;20053;-61
2021/07/26 12:32:03;;;;;;;8.82;3.70;;;;;;;19.40;69.39;99410.75;4997010;28;20049;-61
2021/07/26 12:35:13;;;;;;;9.15;4.15;;;;;;;19.40;69.51;99416.00;4996243;28;20417;-63
2021/07/26 12:38:20;;;;;;;11.82;4.10;;;;;;;19.40;69.73;99412.53;4996396;28;20176;-61
2021/07/26 12:41:09;;;;;;;8.30;3.67;;;;;;;19.39;69.66;99409.03;4982195;28;20092;-62
2021/07/26 12:44:17;;;;;;;5.05;3.35;;;;;;;19.40;69.47;99416.00;4982062;28;20104;-62
2021/07/26 12:47:02;;;;;;;6.70;4.00;;;;;;;19.39;69.60;99414.28;4996669;28;20081;-61
2021/07/26 12:49:48;;;;;;;12.85;7.85;;;;;;;19.40;69.47;99410.75;4996353;28;20069;-62
2021/07/26 12:52:32;;;;;;;41.30;23.70;;;;;;;19.42;69.77;99411.56;4981476;28;20128;-62
2021/07/26 12:55:19;;;;;;;35.25;20.15;;;;;;;19.43;69.47;99413.28;4981705;28;20548;-61
2021/07/26 12:58:04;;;;;;;31.83;16.60;;;;;;;19.45;69.77;99405.38;4996356;28;20077;-62
2021/07/26 13:00:49;;;;;;;34.33;17.40;;;;;;;19.48;69.79;99407.88;4995745;28;20048;-63
2021/07/26 13:03:35;;;;;;;38.17;15.95;;;;;;;19.51;69.74;99406.94;4981311;28;20570;-62
2021/07/26 13:06:21;;;;;;;31.83;12.52;;;;;;;19.52;69.69;99408.69;4996114;28;20058;-63
2021/07/26 13:09:08;;;;;;;19.17;7.97;;;;;;;19.54;69.61;99412.13;4996422;28;20104;-62